Terminal Aerodrome Forecast
Issued by NWS Wichita, KS

Home | Current Version | Previous Version | Text Only | Print | Product List | Glossary Off
Versions: 1 2 3 4 5 6 7 8 9 10 11 12

000
FTUS43 KICT 251100
TAFICT
TAF
KICT 251120Z 2512/2612 19012KT P6SM SKC
     FM251500 20022G31KT P6SM SCT120 SCT250
     FM260100 18015G21KT P6SM SCT120
     FM260600 18015KT P6SM BKN120=

USA.gov is the U.S. government's official web portal to all federal, state and local government web resources and services.